Date,TemperatureHighF,TemperatureAvgF,TemperatureLowF,DewpointHighF,DewpointAvgF,DewpointLowF,HumidityHigh,HumidityAvg,HumidityLow,PressureMaxIn,PressureMinIn,WindSpeedMaxMPH,WindSpeedAvgMPH,GustSpeedMaxMPH,PrecipitationSumIn
2013-1-1,35,29,16,24,13,-2,69,53,41,29.94,29.69,21,3,21,0.00
2013-1-2,27,16,7,15,2,-12,68,53,40,30.13,29.90,13,2,16,0.00
2013-1-3,22,10,0,4,-7,-14,68,47,24,30.15,29.99,10,1,15,0.00
2013-1-4,37,24,8,20,14,2,84,65,50,30.00,29.80,15,1,15,0.00
2013-1-5,39,30,18,21,16,11,76,56,33,30.27,29.83,19,2,19,0.00
2013-1-6,39,28,18,26,21,12,83,74,56,30.24,29.94,14,0,14,0.00
2013-1-7,33,25,15,26,16,10,91,72,43,30.41,29.96,13,1,13,0.00
2013-1-8,42,25,13,27,18,9,90,76,50,30.37,30.26,11,0,11,0.00
2013-1-9,41,30,17,32,23,14,89,77,56,30.42,29.99,12,1,12,0.00
2013-1-10,43,38,26,27,23,20,78,55,43,30.55,30.02,18,4,26,0.00
2013-1-11,37,30,21,30,24,17,92,80,62,30.54,30.23,4,0,4,0.18
2013-1-12,39,35,32,38,33,30,96,94,92,30.23,30.13,4,0,4,0.03
2013-1-13,45,39,33,44,38,32,99,96,95,30.16,29.98,8,0,8,0.00
2013-1-14,58,46,38,49,38,24,97,76,48,30.27,29.85,15,2,15,0.00
2013-1-15,39,34,26,26,23,21,86,65,50,30.33,30.24,10,1,10,0.00
2013-1-16,31,30,30,30,29,28,95,94,93,29.94,29.82,0,0,0,0.08
2013-1-17,39,29,21,33,22,6,99,76,43,30.11,29.82,13,1,13,0.00
2013-1-18,26,18,12,8,-4,-11,68,40,26,30.45,30.05,21,2,21,0.01
2013-1-19,43,32,18,28,18,4,83,58,42,30.37,29.86,16,2,16,0.00
2013-1-20,51,37,26,30,22,6,84,56,30,29.93,29.52,26,4,29,0.00
2013-1-21,26,22,16,17,6,-4,86,51,34,30.10,29.80,21,1,21,0.02
2013-1-22,21,17,9,17,4,-6,86,60,34,30.08,29.76,17,2,17,0.00
2013-1-23,12,7,0,-4,-15,-22,55,36,20,30.19,30.07,19,2,19,0.00
2013-1-24,16,7,-2,-15,-18,-21,47,30,20,30.24,30.06,29,4,29,0.00
2013-1-25,20,13,5,2,-14,-19,54,28,19,30.32,30.07,19,2,19,0.00
2013-1-26,21,14,9,5,-5,-15,75,46,22,30.25,30.02,18,3,18,0.00
2013-1-27,27,17,9,-2,-5,-11,57,38,21,30.49,30.24,17,3,17,0.00
2013-1-28,29,21,14,19,6,-3,84,54,32,30.46,30.09,9,0,9,0.10
2013-1-29,33,31,30,29,26,24,91,83,75,30.20,30.15,4,0,4,0.01
2013-1-30,56,41,31,54,39,28,98,93,90,30.17,29.43,17,2,17,0.04
2013-1-31,59,50,28,57,45,12,95,83,49,29.59,28.94,36,7,36,0.44
2013-2-1,31,26,20,16,6,0,64,43,30,30.09,29.59,25,3,25,0.00
2013-2-2,29,23,13,8,3,-2,62,42,32,30.25,30.05,15,1,15,0.00
2013-2-3,26,23,17,20,17,8,86,77,50,30.06,29.74,11,1,11,0.01
2013-2-4,29,22,15,18,7,-1,85,55,32,29.91,29.73,21,2,21,0.00
2013-2-5,30,26,19,18,9,4,76,50,39,30.04,29.94,9,1,9,0.00
2013-2-6,37,28,21,24,15,1,86,62,36,30.31,29.93,20,1,20,0.02
2013-2-7,27,21,11,1,-3,-7,60,36,25,30.55,30.31,15,1,15,0.00
2013-2-8,23,20,16,17,13,-3,88,75,31,30.51,29.71,24,3,24,0.27
2013-2-9,21,17,14,16,9,-2,89,72,48,30.22,29.65,28,8,28,0.12
2013-2-10,37,21,5,13,1,-6,76,46,21,30.40,30.22,15,2,15,0.00
2013-2-11,31,24,10,30,19,4,96,84,70,30.36,29.62,5,0,5,0.00
2013-2-12,43,36,30,32,28,25,97,75,54,29.88,29.60,20,2,20,0.31
2013-2-13,41,32,23,25,22,19,87,68,48,29.87,29.73,12,1,12,0.00
2013-2-14,42,32,23,24,21,18,87,67,45,30.00,29.71,11,1,11,0.00
2013-2-15,50,34,20,35,26,16,95,75,48,30.00,29.89,15,1,15,0.00
2013-2-16,38,32,26,32,25,14,95,76,51,29.97,29.75,13,1,13,0.11
2013-2-17,27,20,15,16,5,-3,83,54,38,29.75,29.41,33,7,33,0.00
2013-2-18,29,20,13,1,-3,-7,48,37,21,30.16,29.69,27,6,28,0.00
2013-2-19,45,33,17,38,20,0,97,63,40,30.18,29.58,13,1,13,0.30
2013-2-20,35,31,25,35,20,10,99,65,42,29.78,29.54,20,3,20,0.01
2013-2-21,30,25,22,15,11,7,69,55,44,30.22,29.77,23,4,23,0.00
2013-2-22,40,30,18,24,19,14,84,64,41,30.42,30.22,12,1,12,0.00
2013-2-23,38,33,27,31,27,22,96,81,70,30.35,29.95,10,1,10,0.04
2013-2-24,33,32,30,32,31,29,98,96,95,29.95,29.73,10,1,10,0.65
2013-2-25,38,32,28,34,30,27,97,93,81,30.25,29.91,4,0,4,0.00
2013-2-26,42,34,27,37,30,26,98,86,67,30.36,30.19,9,0,9,0.00
2013-2-27,39,36,33,39,35,29,100,97,84,30.19,29.60,17,3,17,1.33
2013-2-28,45,36,32,39,34,31,100,92,74,29.65,29.54,9,1,9,0.00
2013-3-1,39,35,27,34,29,26,100,78,62,29.70,29.55,19,2,19,0.00
2013-3-2,41,36,28,31,26,23,88,69,60,29.69,29.63,13,2,13,0.00
2013-3-3,39,34,29,32,27,24,83,76,68,29.66,29.57,14,3,14,0.00
2013-3-4,37,32,29,27,23,20,81,69,55,29.77,29.59,21,6,21,0.00
2013-3-5,43,35,29,32,26,21,90,71,55,30.09,29.77,13,2,13,0.00
2013-3-6,38,34,31,34,31,28,95,89,71,30.16,30.07,18,3,18,0.26
2013-3-7,33,31,29,30,28,26,97,91,81,30.13,30.03,19,4,19,0.25
2013-3-8,40,32,28,32,28,23,99,86,63,30.18,29.98,13,2,13,0.92
2013-3-9,49,35,24,27,23,17,92,65,29,30.38,30.18,9,1,10,0.00
2013-3-10,44,33,20,33,27,17,97,80,57,30.44,30.31,9,1,9,0.00
2013-3-11,51,40,30,40,34,28,94,79,57,30.33,30.15,12,2,12,0.00
2013-4-7,47,45,44,36,36,35,74,69,63,30.03,30.00,7,3,10,0.00
2013-4-8,63,49,34,42,34,29,94,62,28,30.11,29.96,13,2,13,0.00
2013-4-9,67,54,44,50,42,38,93,66,39,30.09,29.87,15,2,21,0.04
2013-4-10,60,50,44,49,45,40,93,81,62,30.04,29.87,7,1,9,0.63
2013-4-11,51,45,39,46,35,23,94,71,40,30.16,29.86,11,2,12,0.08
2013-4-12,40,36,34,33,30,25,90,81,55,30.20,29.83,11,2,16,0.49
2013-4-13,52,42,34,39,34,31,90,77,52,29.95,29.79,10,2,11,0.10
2013-4-14,53,44,32,38,32,26,92,64,39,30.24,29.93,21,2,21,0.00
2013-4-15,60,43,27,36,31,24,93,66,33,30.40,30.23,13,1,13,0.00
2013-4-16,69,52,34,49,41,31,92,68,41,30.41,30.06,24,4,24,0.01
2013-4-17,64,56,44,50,33,24,78,44,24,30.36,30.06,16,4,16,0.00
2013-4-18,65,50,33,41,31,24,81,51,29,30.46,30.16,21,3,21,0.00
2013-4-19,77,64,52,62,55,41,90,74,51,30.17,29.63,24,5,24,0.00
2013-4-20,67,52,42,62,38,18,94,61,33,30.24,29.61,23,4,23,0.47
2013-4-21,51,41,30,26,17,9,74,41,19,30.70,30.24,23,3,23,0.00
2013-4-22,52,40,27,32,27,21,87,62,32,30.78,30.63,17,2,17,0.00
2013-4-23,40,36,31,38,33,27,93,86,74,30.63,30.34,10,2,10,0.01
2013-4-24,76,68,55,50,42,34,69,42,24,29.85,29.78,17,4,17,0.00
2013-4-25,62,53,38,50,32,20,88,49,22,30.30,29.83,19,4,19,0.03
2013-4-26,61,47,31,38,32,26,86,58,33,30.44,30.30,8,1,11,0.00
2013-4-27,65,50,33,40,34,30,91,59,29,30.47,30.30,14,1,14,0.00
2013-4-28,71,54,35,42,34,28,91,53,24,30.36,30.23,15,2,15,0.00
2013-4-29,72,57,41,46,36,28,78,47,26,30.29,30.19,14,2,14,0.00
2013-4-30,71,58,43,37,28,18,67,36,16,30.39,30.27,12,1,12,0.00
2013-5-1,73,54,34,37,31,25,83,47,21,30.49,30.38,14,1,14,0.00
2013-5-2,81,54,38,44,37,30,87,57,19,30.52,30.35,15,1,15,0.00
2013-5-3,62,50,37,44,39,33,87,68,49,30.56,30.40,14,2,14,0.00
2013-5-4,63,50,37,45,36,24,94,64,24,30.40,30.31,15,2,15,0.00
2013-5-5,66,48,31,42,35,28,94,64,37,30.37,30.26,15,2,15,0.00
2013-5-6,74,52,33,47,39,29,90,66,25,30.31,30.15,12,1,12,0.00
2013-5-7,80,63,40,56,48,38,95,64,29,30.19,30.09,14,2,14,0.00
2013-5-8,76,63,50,62,56,48,95,79,53,30.22,30.06,19,2,19,0.02
2013-5-9,68,59,54,63,57,46,100,93,74,30.07,29.90,3,0,7,0.24
2013-5-10,82,65,54,62,56,52,99,76,38,29.98,29.90,10,1,10,0.00
2013-5-11,70,63,58,62,59,54,96,85,73,29.92,29.70,22,2,22,0.10
2013-5-12,71,60,46,59,49,26,97,71,35,29.82,29.57,21,2,21,0.06
2013-5-13,57,47,37,33,28,23,77,49,30,30.05,29.82,18,2,18,0.00
2013-5-14,57,46,33,35,30,23,88,57,29,30.08,29.99,18,2,18,0.00
2013-5-15,69,51,30,51,38,27,93,67,29,30.07,29.68,16,2,18,0.00
2013-5-16,79,64,42,53,38,29,97,48,18,29.84,29.64,29,3,29,0.00
2013-5-17,68,57,45,41,38,33,81,51,30,30.24,29.83,20,3,20,0.00
2013-5-18,73,57,38,46,40,32,95,59,23,30.33,30.23,12,1,12,0.00
2013-5-19,73,57,47,55,50,44,97,80,45,30.37,30.23,9,1,9,0.12
2013-5-20,80,67,55,64,60,54,99,80,55,30.23,29.92,13,1,13,0.09
2013-5-21,74,60,49,65,56,46,99,88,69,30.05,29.89,16,2,16,0.01
2013-5-22,61,52,49,58,51,47,99,95,88,30.11,29.89,10,1,10,1.00
2013-5-23,78,62,52,71,60,51,100,93,72,29.95,29.80,20,2,20,0.52
2013-5-24,74,61,47,69,58,44,100,90,72,29.86,29.65,23,3,23,1.12
2013-5-25,49,45,40,46,42,35,93,89,81,29.85,29.73,20,4,20,0.44
2013-5-26,55,47,39,40,36,34,87,68,49,30.11,29.73,21,5,21,0.04
2013-5-27,70,54,35,46,36,28,92,58,23,30.20,30.09,19,2,19,0.00
2013-5-28,77,58,39,50,43,36,94,62,24,30.26,30.17,10,1,10,0.00
2013-5-29,70,62,53,65,59,48,99,91,80,30.20,29.99,8,0,8,0.46
2013-5-30,88,74,59,69,63,58,100,74,40,30.09,30.01,14,1,14,0.01
2013-5-31,94,78,60,70,63,57,95,64,31,30.11,29.93,13,1,13,0.00
2013-6-1,94,80,64,70,64,57,96,65,30,29.98,29.85,14,1,14,0.02
2013-6-2,92,79,68,72,66,60,92,68,35,29.88,29.70,24,2,24,0.04
2013-6-3,80,69,57,68,62,46,96,80,46,29.86,29.76,13,1,13,0.30
2013-6-4,69,60,49,47,44,39,76,54,38,30.03,29.84,18,3,18,0.00
2013-6-6,76,67,57,55,53,50,89,62,42,30.16,30.11,12,1,12,0.01
2013-6-7,58,54,51,55,52,50,97,94,89,30.13,29.85,11,1,11,1.75
2013-6-8,78,62,51,63,56,50,98,83,57,30.01,29.66,17,2,17,0.81
2013-6-9,78,66,51,61,54,50,100,71,40,30.18,30.01,13,1,13,0.00
2013-6-10,72,62,52,62,57,51,100,84,58,30.22,30.08,8,0,8,0.15
2013-6-11,61,57,54,57,55,53,100,94,84,29.92,29.60,10,1,10,0.50
2013-6-12,69,61,54,58,55,52,98,80,61,29.83,29.57,27,4,27,0.04
2013-6-13,69,57,48,60,54,46,100,90,66,29.84,29.72,8,0,8,0.42
2013-6-14,74,60,52,59,54,48,100,82,41,29.79,29.67,12,1,12,0.57
2013-6-15,77,64,49,56,48,38,99,62,25,29.95,29.79,15,2,15,0.00
2013-6-16,78,65,50,63,56,48,99,75,42,29.95,29.71,10,1,10,0.00
2013-6-17,85,68,55,64,60,54,98,78,40,29.92,29.78,18,1,18,0.14
2013-6-18,74,61,54,63,58,53,100,92,66,29.97,29.90,12,0,12,0.60
2013-6-19,75,64,52,59,52,40,100,69,31,30.17,29.93,10,1,10,0.00
2013-6-20,80,64,46,58,51,43,100,66,32,30.28,30.16,9,1,9,0.00
2013-6-21,84,71,54,66,58,48,100,67,31,30.26,30.20,11,1,17,0.00
2013-6-22,86,73,58,68,62,56,95,71,46,30.23,30.10,16,1,16,0.00
2013-6-23,92,78,65,74,66,60,86,67,49,30.16,29.98,10,1,17,0.00
2013-6-24,94,80,68,73,68,62,95,71,40,30.02,29.87,22,1,22,0.03
2013-6-25,92,79,67,72,68,65,97,73,44,29.94,29.72,15,1,15,0.74
2013-6-26,80,72,66,73,69,65,100,92,71,29.87,29.73,14,0,14,0.08
2013-6-27,69,64,60,66,63,59,100,95,87,29.89,29.77,10,0,10,0.08
2013-6-28,79,70,57,74,67,57,100,92,77,29.78,29.48,15,1,15,0.36
2013-6-29,86,76,70,72,68,66,96,78,54,29.72,29.51,18,2,18,0.00
2013-6-30,89,77,65,73,69,63,97,76,53,29.94,29.71,14,1,14,0.00
2013-7-1,80,74,71,74,71,68,98,91,78,30.08,29.94,11,0,11,0.97
2013-7-2,84,70,59,76,68,58,99,93,69,30.23,30.07,10,1,10,0.17
2013-7-3,89,74,59,74,67,58,99,81,57,30.23,30.13,9,0,9,0.01
2013-7-4,94,82,69,75,71,68,96,71,48,30.21,30.08,14,1,14,0.00
2013-7-5,94,84,73,76,72,69,92,68,47,30.16,30.03,11,0,11,0.00
2013-7-6,90,80,69,74,69,61,93,70,43,30.08,29.98,14,1,14,0.00
2013-7-7,92,77,64,79,69,61,93,78,50,30.03,29.90,9,0,9,0.03
2013-7-8,87,75,66,75,70,64,96,85,65,30.09,29.91,9,1,12,0.19
2013-7-9,70,65,64,67,64,62,98,96,91,30.13,30.06,4,0,4,0.00
2013-7-10,76,74,73,74,73,72,96,96,95,29.82,29.80,4,0,4,0.00
2013-7-11,85,74,69,76,71,67,98,90,68,29.95,29.77,9,0,10,0.13
2013-7-12,78,70,64,67,61,55,100,74,47,30.22,29.95,12,1,12,0.00
2013-7-13,80,71,63,71,66,60,98,84,68,30.33,30.22,7,0,7,0.00
2013-7-14,89,78,68,75,71,67,98,79,51,30.31,30.21,7,1,7,0.00
2013-7-15,91,79,68,74,70,66,98,75,47,30.22,30.09,12,1,15,0.00
2013-7-16,92,79,66,72,68,63,100,72,40,30.18,30.11,14,2,14,0.00
2013-7-17,96,82,68,73,70,66,98,70,40,30.19,29.98,8,0,8,0.00
2013-7-18,96,82,73,74,71,67,91,71,45,30.02,29.94,11,1,11,0.00
2013-7-19,97,85,70,76,72,68,95,68,42,29.96,29.71,14,1,14,0.00
2013-7-20,93,82,72,77,69,61,87,65,47,29.82,29.66,14,1,14,0.00
2013-7-21,84,74,63,67,64,61,96,73,48,30.00,29.82,12,0,12,0.00
2013-7-22,84,72,66,70,67,64,99,85,61,30.03,29.90,8,0,8,0.00
2013-7-23,80,71,67,74,69,65,98,94,80,29.90,29.55,7,0,7,1.57
2013-7-24,84,74,62,74,66,52,98,75,52,29.99,29.59,15,2,15,0.00
2013-7-25,64,60,56,58,53,46,97,78,65,30.17,29.99,13,1,13,0.11
2013-7-26,72,64,59,68,62,57,100,93,76,30.10,29.95,15,2,15,0.21
2013-7-27,84,72,56,69,62,56,100,75,44,30.06,29.99,9,0,9,0.02
2013-7-28,83,70,62,70,66,60,99,86,64,30.05,29.97,9,1,9,0.12
2013-7-29,87,72,66,72,68,65,100,88,56,30.06,29.94,10,1,16,0.37
2013-7-30,80,70,58,67,59,52,100,71,40,30.11,30.04,13,1,13,0.01
2013-7-31,83,70,58,67,60,56,100,75,45,30.15,30.05,9,0,9,0.00
2013-8-1,83,69,57,68,64,56,100,84,53,30.06,29.88,12,1,12,0.04
2013-8-2,83,71,64,70,63,56,100,79,44,29.89,29.79,11,0,11,0.48
2013-8-3,80,69,59,67,61,58,100,79,52,29.87,29.77,11,1,11,0.01
2013-8-4,78,66,54,62,56,52,100,73,44,29.91,29.78,19,1,19,0.00
2013-8-5,74,62,51,54,46,32,94,60,22,30.07,29.90,19,2,19,0.00
2013-8-6,79,63,47,56,50,43,97,66,33,30.17,30.07,7,0,7,0.00
2013-8-7,81,67,51,61,53,45,97,66,29,30.20,30.11,12,1,12,0.00
2013-8-8,83,73,64,72,65,57,88,76,61,30.13,30.00,14,2,14,0.00
2013-8-9,74,72,68,72,69,67,96,92,86,30.03,29.74,16,1,16,1.05
2013-8-10,82,72,60,69,60,53,100,71,39,30.03,29.79,14,1,14,0.00
2013-8-11,78,65,51,60,53,47,95,69,35,30.10,30.00,14,1,14,0.00
2013-8-12,83,68,55,64,57,51,96,72,41,30.04,29.92,9,1,9,0.00
2013-8-13,75,67,61,70,64,60,100,92,71,29.94,29.68,8,0,8,0.06
2013-8-14,73,65,57,63,54,49,100,69,45,29.98,29.67,18,2,20,0.00
2013-8-15,77,62,48,58,51,47,100,70,39,30.13,29.97,12,1,12,0.00
2013-8-16,78,64,49,60,53,48,100,72,38,30.20,30.12,12,1,12,0.00
2013-8-17,81,66,51,65,58,49,100,78,44,30.29,30.20,8,1,8,0.00
2013-8-18,82,68,54,66,60,52,99,79,51,30.29,30.09,8,0,8,0.00
2013-8-19,81,69,55,65,60,53,100,76,45,30.10,29.96,15,1,15,0.00
2013-8-20,86,72,57,69,62,56,100,74,43,30.11,29.99,8,1,8,0.00
2013-8-21,88,73,57,68,62,56,99,73,41,30.16,30.03,10,0,10,0.00
2013-8-22,89,75,60,71,65,58,100,75,42,30.05,29.83,17,1,17,0.00
2013-8-23,79,71,62,67,57,48,88,62,39,30.15,29.83,15,3,15,0.00
2013-8-24,78,63,49,58,49,42,95,66,30,30.35,30.15,12,1,12,0.00
2013-8-25,82,66,48,58,52,44,100,67,28,30.38,30.19,10,1,10,0.00
2013-8-26,80,70,62,67,63,57,96,77,58,30.19,29.88,10,1,10,0.03
2013-8-27,85,75,65,71,66,62,100,76,50,29.92,29.83,11,1,11,0.00
2013-8-28,86,72,60,68,64,58,97,77,49,30.00,29.85,10,1,10,0.00
2013-8-29,67,64,61,65,62,57,98,91,84,30.10,29.97,11,1,11,0.01
2013-8-30,84,69,55,67,62,53,99,80,53,30.04,29.82,10,0,10,0.01
2013-8-31,82,74,65,75,70,63,100,90,73,29.84,29.78,11,1,11,0.23
2013-9-1,85,76,69,73,71,68,100,83,60,29.89,29.80,11,1,11,0.57
2013-9-2,78,74,71,76,72,70,97,93,84,29.88,29.71,9,0,9,0.69
2013-9-3,83,72,59,71,66,56,98,83,56,29.82,29.70,11,1,11,0.00
2013-9-4,80,66,54,63,53,48,99,67,33,29.93,29.81,14,1,14,0.00
2013-9-5,69,61,48,58,48,37,90,68,33,30.17,29.86,16,2,16,0.01
2013-9-6,69,54,40,47,40,32,88,63,27,30.27,30.10,6,1,9,0.00
2013-9-7,80,62,45,59,48,41,89,66,27,30.11,29.86,9,0,9,0.01
2013-9-8,71,62,46,59,49,37,86,63,37,30.12,29.76,24,2,24,0.00
2013-9-9,71,55,38,47,40,33,86,61,32,30.26,30.11,11,1,11,0.00
2013-9-10,75,65,52,69,59,45,95,82,70,30.17,30.02,10,0,10,0.15
2013-9-11,94,80,65,76,68,63,99,72,40,30.07,29.93,19,1,19,0.09
2013-9-12,87,74,66,72,66,62,94,78,56,29.96,29.67,18,1,18,1.20
2013-9-13,78,67,59,69,61,50,98,82,62,29.78,29.58,16,2,16,0.10
2013-9-14,66,59,50,54,50,45,87,71,58,30.07,29.77,15,2,15,0.00
2013-9-15,71,57,43,53,45,38,91,70,31,30.18,30.05,12,1,12,0.00
2013-9-16,66,56,46,56,48,34,91,76,57,30.28,30.01,16,2,16,0.03
2013-9-17,62,49,37,45,36,32,85,64,36,30.45,30.28,12,1,12,0.00
2013-9-18,73,54,36,49,40,31,89,64,22,30.35,30.15,7,0,7,0.00
2013-9-19,77,58,42,58,47,37,90,69,32,30.16,30.04,7,0,7,0.00
2013-9-20,79,61,45,57,50,41,92,72,36,30.11,30.00,8,0,9,0.00
2013-9-21,75,62,47,63,55,43,99,77,55,30.04,29.73,18,2,18,0.00
2013-9-22,69,63,53,64,55,40,97,76,52,29.86,29.60,11,2,21,0.74
2013-9-23,59,51,43,44,40,35,77,65,52,30.03,29.85,19,3,19,0.00
2013-9-24,65,50,36,45,38,32,88,65,37,30.01,29.83,17,2,17,0.00
2013-9-25,66,52,39,51,44,35,88,74,49,30.01,29.89,7,0,10,0.00
2013-9-26,66,57,51,50,47,43,89,73,48,30.15,30.00,11,1,11,0.00
2013-9-27,66,57,48,54,50,44,92,76,59,30.28,30.15,10,1,10,0.00
2013-9-28,72,56,44,55,47,40,92,75,45,30.35,30.28,7,0,7,0.00
2013-9-29,67,53,44,54,45,39,96,77,38,30.29,30.14,8,0,8,0.00
2013-9-30,68,53,41,54,46,37,92,79,49,30.15,29.98,7,0,7,0.01
2013-10-1,75,57,41,57,46,37,89,71,36,29.99,29.86,15,1,15,0.00
2013-10-2,78,62,46,60,52,43,97,72,44,29.96,29.84,16,1,16,0.00
2013-10-3,76,60,46,57,48,38,92,70,26,30.11,29.96,8,0,8,0.00
2013-10-4,61,55,48,59,52,45,96,91,85,30.12,30.05,5,0,5,0.26
2013-10-5,68,60,54,60,55,52,97,83,62,30.14,30.07,6,0,6,0.00
2013-10-6,59,54,51,55,51,48,96,90,82,30.27,30.13,11,1,11,0.33
2013-10-7,76,63,54,69,59,52,96,87,66,30.16,29.80,24,2,24,0.25
2013-10-8,64,53,41,55,42,33,95,70,33,30.41,29.91,15,1,15,0.01
2013-10-9,61,47,36,46,39,33,88,75,45,30.51,30.39,9,1,9,0.00
2013-10-10,61,49,38,51,44,35,93,84,64,30.39,30.21,6,0,6,0.00
2013-10-11,70,54,44,52,43,23,93,72,17,30.21,30.12,10,1,10,0.00
2013-10-12,56,51,45,52,48,41,92,88,85,30.43,30.18,14,1,14,0.01
2013-10-13,58,48,38,50,43,36,94,83,64,30.48,30.40,9,0,9,0.01
2013-10-14,64,49,38,50,41,34,98,77,40,30.43,30.25,8,0,8,0.00
2013-10-15,64,55,49,53,49,45,89,80,63,30.29,30.20,8,0,8,0.00
2013-10-16,61,54,48,52,49,45,94,85,65,30.20,29.93,5,0,5,0.00
2013-10-17,73,57,46,61,49,43,95,78,36,29.94,29.73,13,1,13,0.00
2013-10-18,66,58,42,59,50,37,96,76,48,29.92,29.61,21,2,21,0.04
2013-10-19,67,52,36,47,40,33,93,67,37,29.99,29.76,11,1,11,0.01
2013-10-20,60,50,36,48,37,30,91,64,36,30.04,29.70,19,2,19,0.01
2013-10-21,66,47,32,44,36,26,86,67,36,30.13,30.00,13,1,13,0.00
2013-10-22,64,49,38,53,42,34,91,77,56,30.01,29.72,15,1,15,0.02
2013-10-23,52,42,31,36,32,27,87,69,45,29.82,29.61,8,0,8,0.00
2013-10-24,52,43,31,34,28,22,85,56,33,29.90,29.66,18,1,21,0.00
2013-10-25,48,39,28,33,26,22,87,61,37,30.17,29.90,15,1,15,0.00
2013-10-26,54,40,25,36,26,21,88,61,31,30.17,29.88,20,2,20,0.00
2013-10-27,51,46,42,36,33,30,75,61,47,29.90,29.81,16,1,16,0.00
2013-10-28,56,46,27,36,29,21,89,55,39,30.38,30.10,18,2,18,0.00
2013-10-29,46,32,22,25,18,13,81,59,27,30.49,30.37,9,0,9,0.00
2013-10-30,50,36,26,38,28,18,87,75,59,30.39,30.21,6,0,6,0.02
2013-10-31,58,42,28,55,39,24,93,89,84,30.27,29.80,16,1,16,0.13
2013-11-1,68,62,50,60,54,46,91,76,60,29.80,29.42,29,4,29,0.04
2013-11-2,65,51,38,48,41,35,91,72,36,29.75,29.60,12,1,12,0.04
2013-11-3,47,39,28,42,22,7,86,52,27,30.45,29.74,15,3,15,0.00
2013-11-4,41,29,20,17,13,9,76,53,28,30.74,30.45,9,0,9,0.00
2013-11-5,49,34,21,29,23,14,82,66,42,30.74,30.52,9,0,9,0.00
2013-11-6,60,48,34,44,38,29,86,69,48,30.53,30.04,16,2,16,0.00
2013-11-7,63,53,38,55,46,26,86,77,54,30.04,29.69,17,2,17,0.10
2013-11-8,47,38,27,32,24,18,78,58,46,30.10,29.83,18,1,18,0.03
2013-11-9,43,37,27,29,23,18,75,58,41,30.23,30.04,18,1,18,0.02
2013-11-10,55,43,37,46,34,28,96,70,51,30.04,29.75,19,0,19,0.05
2013-11-11,51,44,38,30,25,18,62,48,28,30.12,29.86,19,2,19,0.00
2013-11-12,47,34,25,35,20,12,82,57,43,30.20,29.89,16,1,16,0.06
2013-11-13,34,26,19,13,10,4,70,50,29,30.32,30.16,17,1,17,0.00
2013-11-14,50,36,26,24,18,12,75,52,28,30.17,30.04,12,0,12,0.00
2013-11-15,60,38,24,25,19,10,77,53,14,30.21,30.11,9,0,9,0.00
2013-11-16,58,40,30,30,26,23,78,61,27,30.35,30.19,5,0,5,0.00
2013-11-17,45,38,27,42,33,22,93,82,73,30.35,29.87,1,0,1,0.03
2013-11-18,63,53,43,58,43,27,95,71,38,29.87,29.53,18,1,18,0.18
2013-11-19,48,38,30,28,17,11,52,43,33,30.31,29.67,24,4,24,0.00
2013-11-20,40,30,20,14,11,7,70,46,27,30.66,30.30,22,2,22,0.00
2013-11-21,47,30,16,24,16,9,79,58,22,30.68,30.39,9,0,9,0.00
2013-11-22,43,39,33,40,34,23,91,85,68,30.39,29.83,3,0,3,0.22
2013-11-23,44,37,29,41,23,6,92,59,36,29.95,29.80,23,2,23,0.01
2013-11-24,29,23,19,7,-4,-10,46,31,21,30.21,29.80,31,7,31,0.00
2013-11-25,31,23,15,12,-3,-15,48,32,15,30.39,30.21,18,2,18,0.00
2013-11-26,37,33,29,30,21,11,90,63,43,30.36,30.08,8,0,8,0.13
2013-11-27,60,47,32,58,44,29,96,91,73,30.08,29.24,18,3,18,1.69
2013-11-28,37,29,20,30,13,0,76,52,28,30.45,29.45,25,3,25,0.00
2013-11-29,30,23,14,14,6,-3,77,51,25,30.77,30.44,14,1,14,0.00
2013-11-30,31,21,9,19,11,4,79,65,46,30.83,30.45,10,0,10,0.00
2013-12-1,34,32,29,33,27,18,95,84,66,30.45,30.04,6,0,6,0.21
2013-12-2,38,36,34,36,34,33,96,95,94,30.05,29.94,5,0,5,0.01
2013-12-3,47,36,27,36,32,24,95,85,58,29.98,29.87,7,1,9,0.01
2013-12-4,41,31,24,28,24,20,90,77,51,30.23,29.97,12,1,12,0.00
2013-12-5,38,34,26,37,32,22,96,90,80,30.24,29.92,9,0,9,0.01
2013-12-6,47,41,32,44,37,26,98,85,50,30.20,29.87,12,1,12,0.27
2013-12-7,38,31,21,32,24,16,93,77,49,30.48,30.11,16,2,16,0.07
2013-12-8,29,24,17,19,16,12,86,71,54,30.62,30.47,6,0,6,0.00
2013-12-9,34,30,24,33,26,15,94,87,61,30.53,29.90,9,0,9,0.38
2013-12-10,33,29,22,31,25,11,94,87,60,30.01,29.80,16,1,16,0.03
2013-12-11,31,23,16,17,14,12,84,69,50,30.22,30.01,12,0,12,0.01
2013-12-12,23,17,9,16,4,-7,85,59,28,30.29,30.07,18,1,18,0.00
2013-12-13,27,19,10,17,7,-6,75,61,48,30.43,30.00,14,1,14,0.00
2013-12-14,15,10,6,11,-2,-10,83,57,42,30.65,30.21,14,1,14,0.09
2013-12-15,27,20,15,24,16,10,92,86,82,30.23,29.47,14,1,14,0.75
2013-12-16,25,20,11,17,8,0,88,62,39,30.23,29.75,20,1,20,0.01
2013-12-17,14,8,-5,11,1,-11,86,74,53,30.32,29.99,13,0,13,0.27
2013-12-18,32,23,13,18,15,8,84,73,52,30.09,29.91,17,1,17,0.13
2013-12-19,39,29,24,23,20,17,85,71,49,30.14,29.97,14,0,14,0.00
2013-12-20,50,34,26,34,28,22,89,80,52,30.14,29.92,13,0,13,0.00
2013-12-21,55,40,31,44,35,28,93,83,64,29.97,29.86,8,0,8,0.00
2013-12-22,44,34,31,43,33,30,96,94,87,30.06,29.83,10,0,10,0.05
2013-12-23,35,32,30,34,31,29,97,96,95,30.13,29.99,6,0,6,0.63
2013-12-24,35,30,24,34,18,9,97,61,49,30.23,30.08,16,2,16,0.00
2013-12-25,24,16,10,10,1,-6,71,51,37,30.57,30.22,22,1,22,0.00
2013-12-26,24,18,12,21,12,6,87,77,64,30.53,30.11,2,0,2,0.00
2013-12-27,32,21,10,21,15,6,88,77,58,30.29,30.21,10,0,10,0.04
2013-12-28,44,27,14,28,20,10,89,77,51,30.24,30.00,3,0,14,0.05
2013-12-29,38,31,23,34,28,21,96,89,73,30.05,29.48,16,0,16,1.07
2013-12-30,39,30,14,37,21,2,98,72,48,30.21,29.55,21,2,21,0.02
2013-12-31,22,15,9,10,1,-8,81,56,41,30.20,30.04,8,0,8,0.00
2014-1-1,25,17,9,8,5,2,76,60,41,30.41,30.19,16,0,16,0.00
2014-1-2,16,8,-1,11,2,-8,81,75,70,30.39,29.92,19,3,19,0.11